createdAt,value
2018-10-16T00:00:50.567Z,0.00
2018-10-16T00:01:50.539Z,0.00
2018-10-16T00:02:50.702Z,0.00
2018-10-16T00:03:50.567Z,0.00
2018-10-16T00:04:50.571Z,0.00
2018-10-16T00:05:50.589Z,0.00
2018-10-16T00:06:50.591Z,0.00
2018-10-16T00:07:50.637Z,0.00
2018-10-16T00:08:50.593Z,0.00
2018-10-16T00:09:50.636Z,0.00
2018-10-16T00:10:50.614Z,0.00
2018-10-16T00:11:50.650Z,0.00
2018-10-16T00:12:50.650Z,0.00
2018-10-16T00:13:50.661Z,0.00
2018-10-16T00:14:50.696Z,0.00
2018-10-16T00:15:50.682Z,0.00
2018-10-16T00:16:50.708Z,0.00
2018-10-16T00:17:50.689Z,0.00
2018-10-16T00:18:50.827Z,0.00
2018-10-16T00:19:50.691Z,0.00
2018-10-16T00:20:50.733Z,0.00
2018-10-16T00:21:50.705Z,0.00
2018-10-16T00:22:50.768Z,0.00
2018-10-16T00:23:50.779Z,0.00
2018-10-16T00:24:50.761Z,0.00
2018-10-16T00:25:50.755Z,0.00
2018-10-16T00:26:50.814Z,0.00
2018-10-16T00:27:50.809Z,0.00
2018-10-16T00:28:50.807Z,0.00
2018-10-16T00:29:50.799Z,0.00
2018-10-16T00:30:50.827Z,0.00
2018-10-16T00:31:50.793Z,0.00
2018-10-16T00:32:50.840Z,0.00
2018-10-16T00:33:50.826Z,0.00
2018-10-16T00:34:50.852Z,0.00
2018-10-16T00:35:50.823Z,0.00
2018-10-16T00:36:50.852Z,0.00
2018-10-16T00:37:50.890Z,0.00
2018-10-16T00:38:50.866Z,0.00
2018-10-16T00:39:50.869Z,0.00
2018-10-16T00:40:50.900Z,0.00
2018-10-16T00:41:50.905Z,0.00
2018-10-16T00:42:50.903Z,0.00
2018-10-16T00:43:50.920Z,0.00
2018-10-16T00:44:50.939Z,0.00
2018-10-16T00:45:50.951Z,0.00
2018-10-16T00:46:50.930Z,0.00
2018-10-16T00:47:50.937Z,0.00
2018-10-16T00:48:50.939Z,0.00
2018-10-16T00:49:50.975Z,0.00
2018-10-16T00:50:50.962Z,0.00
2018-10-16T00:51:50.986Z,0.00
2018-10-16T00:52:51.027Z,0.00
2018-10-16T00:53:50.975Z,0.00
2018-10-16T00:54:51.064Z,0.00
2018-10-16T00:55:50.996Z,0.00
2018-10-16T00:56:51.001Z,0.00
2018-10-16T00:57:51.071Z,0.00
2018-10-16T00:58:51.045Z,0.00
2018-10-16T00:59:51.045Z,0.00
2018-10-16T01:00:51.046Z,0.00
2018-10-16T01:01:51.041Z,0.00
2018-10-16T01:02:51.062Z,0.00
2018-10-16T01:03:51.054Z,0.00
2018-10-16T01:04:51.072Z,0.00
2018-10-16T01:05:51.078Z,0.00
2018-10-16T01:06:51.088Z,0.00
2018-10-16T01:07:51.131Z,0.00
2018-10-16T01:08:51.148Z,0.00
2018-10-16T01:09:51.131Z,0.00
2018-10-16T01:10:51.216Z,0.00
2018-10-16T01:11:51.125Z,0.00
2018-10-16T01:12:51.132Z,0.00
2018-10-16T01:13:51.180Z,0.00
2018-10-16T01:14:51.143Z,0.00
2018-10-16T01:15:51.152Z,0.00
2018-10-16T01:16:51.190Z,0.00
2018-10-16T01:17:51.180Z,0.00
2018-10-16T01:18:51.219Z,0.00
2018-10-16T01:19:51.185Z,0.00
2018-10-16T01:20:51.186Z,0.00
2018-10-16T01:21:51.194Z,0.00
2018-10-16T01:22:51.237Z,0.00
2018-10-16T01:23:51.294Z,0.00
2018-10-16T01:24:51.263Z,0.00
2018-10-16T01:25:51.267Z,0.00
2018-10-16T01:26:51.245Z,0.00
2018-10-16T01:27:51.824Z,0.00
2018-10-16T01:28:51.280Z,0.00
2018-10-16T01:29:51.336Z,0.00
2018-10-16T01:30:51.291Z,0.00
2018-10-16T01:31:51.311Z,0.00
2018-10-16T01:32:51.306Z,0.00
2018-10-16T01:33:51.313Z,0.00
2018-10-16T01:34:51.458Z,0.00
2018-10-16T01:35:51.332Z,0.00
2018-10-16T01:36:51.329Z,0.00
2018-10-16T01:37:51.341Z,0.00
2018-10-16T01:38:51.380Z,0.00
2018-10-16T01:39:51.364Z,0.00
2018-10-16T01:40:51.535Z,0.00
2018-10-16T01:41:51.377Z,0.00
2018-10-16T01:42:51.412Z,0.00
2018-10-16T01:43:51.584Z,0.00
2018-10-16T01:44:51.385Z,0.00
2018-10-16T01:45:51.425Z,0.00
2018-10-16T01:46:51.408Z,0.00
2018-10-16T01:47:51.442Z,0.00
2018-10-16T01:48:51.498Z,0.00
2018-10-16T01:49:51.428Z,0.00
2018-10-16T01:50:51.440Z,0.00
2018-10-16T01:51:51.497Z,0.00
2018-10-16T01:52:51.491Z,0.00
2018-10-16T01:53:51.485Z,0.00
2018-10-16T01:54:51.459Z,0.00
2018-10-16T01:55:51.491Z,0.00
2018-10-16T01:56:51.549Z,0.00
2018-10-16T01:57:51.508Z,0.00
2018-10-16T01:58:51.507Z,0.00
2018-10-16T01:59:51.522Z,0.00
2018-10-16T02:00:51.523Z,0.00
2018-10-16T02:01:51.552Z,0.00
2018-10-16T02:02:51.539Z,0.00
2018-10-16T02:03:51.671Z,0.00
2018-10-16T02:04:51.573Z,0.00
2018-10-16T02:05:51.562Z,0.00
2018-10-16T02:06:51.595Z,0.00
2018-10-16T02:07:51.607Z,0.00
2018-10-16T02:08:51.592Z,0.00
2018-10-16T02:09:51.590Z,0.00
2018-10-16T02:10:51.609Z,0.00
2018-10-16T02:11:51.625Z,0.00
2018-10-16T02:12:51.613Z,0.00
2018-10-16T02:13:51.649Z,0.00
2018-10-16T02:14:51.689Z,0.00
2018-10-16T02:15:51.645Z,0.00
2018-10-16T02:16:51.650Z,0.00
2018-10-16T02:17:51.667Z,0.00
2018-10-16T02:18:51.682Z,0.00
2018-10-16T02:19:51.679Z,0.00
2018-10-16T02:20:51.680Z,0.00
2018-10-16T02:21:51.711Z,0.00
2018-10-16T02:22:51.694Z,0.00
2018-10-16T02:23:51.752Z,0.00
2018-10-16T02:24:51.752Z,0.00
2018-10-16T02:25:51.786Z,0.00
2018-10-16T02:26:51.721Z,0.00
2018-10-16T02:27:51.728Z,0.00
2018-10-16T02:28:51.789Z,0.00
2018-10-16T02:29:51.747Z,0.00
2018-10-16T02:30:51.755Z,0.00
2018-10-16T02:31:51.773Z,0.00
2018-10-16T02:32:51.777Z,0.00
2018-10-16T02:33:51.827Z,0.00
2018-10-16T02:34:51.787Z,0.00
2018-10-16T02:35:51.805Z,0.00
2018-10-16T02:36:51.801Z,0.00
2018-10-16T02:37:51.808Z,0.00
2018-10-16T02:38:51.859Z,0.00
2018-10-16T02:39:51.847Z,0.00
2018-10-16T02:40:51.826Z,0.00
2018-10-16T02:41:51.872Z,0.00
2018-10-16T02:42:51.882Z,0.00
2018-10-16T02:43:51.870Z,0.00
2018-10-16T02:44:51.875Z,0.00
2018-10-16T02:45:51.898Z,0.00
2018-10-16T02:46:51.936Z,0.00
2018-10-16T02:47:51.890Z,0.00
2018-10-16T02:48:51.901Z,0.00
2018-10-16T02:49:51.924Z,0.00
2018-10-16T02:50:51.936Z,0.00
2018-10-16T02:51:51.945Z,0.00
2018-10-16T02:52:52.008Z,0.00
2018-10-16T02:53:51.957Z,0.00
2018-10-16T02:54:51.951Z,0.00
2018-10-16T02:55:51.969Z,0.00
2018-10-16T02:56:51.977Z,0.00
2018-10-16T02:57:52.017Z,0.00
2018-10-16T02:58:52.008Z,0.00
2018-10-16T02:59:51.996Z,0.00
2018-10-16T03:00:52.010Z,0.00
2018-10-16T03:01:52.010Z,0.00
2018-10-16T03:02:52.023Z,0.00
2018-10-16T03:03:52.044Z,0.00
2018-10-16T03:04:52.025Z,0.00
2018-10-16T03:05:52.080Z,0.00
2018-10-16T03:06:52.082Z,0.00
2018-10-16T03:07:52.052Z,0.00
2018-10-16T03:08:52.074Z,0.00
2018-10-16T03:09:52.060Z,0.00
2018-10-16T03:10:52.095Z,0.00
2018-10-16T03:11:52.203Z,0.00
2018-10-16T03:12:52.118Z,0.00
2018-10-16T03:13:52.107Z,0.00
2018-10-16T03:14:52.149Z,0.00
2018-10-16T03:15:52.136Z,0.00
2018-10-16T03:16:52.158Z,0.00
2018-10-16T03:17:52.216Z,0.00
2018-10-16T03:18:52.140Z,0.00
2018-10-16T03:19:52.174Z,0.00
2018-10-16T03:20:52.190Z,0.00
2018-10-16T03:21:52.190Z,0.00
2018-10-16T03:22:52.172Z,0.00
2018-10-16T03:23:52.173Z,0.00
2018-10-16T03:24:52.184Z,0.00
2018-10-16T03:25:52.261Z,0.00
2018-10-16T03:26:52.270Z,0.00
2018-10-16T03:27:52.244Z,0.00
2018-10-16T03:28:52.234Z,0.00
2018-10-16T03:29:52.242Z,0.00
2018-10-16T03:30:52.247Z,0.00
2018-10-16T03:31:52.250Z,0.00
2018-10-16T03:32:52.283Z,0.00
2018-10-16T03:33:52.289Z,0.00
2018-10-16T03:34:52.275Z,0.00
2018-10-16T03:35:52.284Z,0.00
2018-10-16T03:36:52.288Z,0.00
2018-10-16T03:37:52.309Z,0.00
2018-10-16T03:38:52.310Z,0.00
2018-10-16T03:39:52.312Z,0.00
2018-10-16T03:40:52.368Z,0.00
2018-10-16T03:41:52.325Z,0.00
2018-10-16T03:42:52.335Z,0.00
2018-10-16T03:43:52.382Z,0.00
2018-10-16T03:44:52.366Z,0.00
2018-10-16T03:45:52.360Z,0.00
2018-10-16T03:46:52.353Z,0.00
2018-10-16T03:47:52.385Z,0.00
2018-10-16T03:48:52.377Z,0.00
2018-10-16T03:49:52.410Z,0.00
2018-10-16T03:50:52.384Z,0.00
2018-10-16T03:51:52.398Z,0.00
2018-10-16T03:52:52.399Z,0.00
2018-10-16T03:53:52.417Z,0.00
2018-10-16T03:54:52.454Z,0.00
2018-10-16T03:55:52.457Z,0.00
2018-10-16T03:56:52.504Z,0.00
2018-10-16T03:57:52.444Z,0.00
2018-10-16T03:58:52.455Z,0.00
2018-10-16T03:59:52.451Z,0.00
2018-10-16T04:00:52.515Z,0.00
2018-10-16T04:01:52.474Z,0.00
2018-10-16T04:02:52.486Z,0.00
2018-10-16T04:03:52.508Z,0.00
2018-10-16T04:04:52.495Z,0.00
2018-10-16T04:05:52.524Z,0.00
2018-10-16T04:06:52.550Z,0.00
2018-10-16T04:07:52.519Z,0.00
2018-10-16T04:08:52.511Z,0.00
2018-10-16T04:09:52.509Z,0.00
2018-10-16T04:10:52.520Z,0.00
2018-10-16T04:11:52.523Z,0.00
2018-10-16T04:12:52.596Z,0.00
2018-10-16T04:13:52.603Z,0.00
2018-10-16T04:14:52.565Z,0.00
2018-10-16T04:15:52.535Z,0.00
2018-10-16T04:16:52.589Z,0.00
2018-10-16T04:17:52.581Z,0.00
2018-10-16T04:18:52.824Z,0.00
2018-10-16T04:19:52.573Z,0.00
2018-10-16T04:20:52.665Z,0.00
2018-10-16T04:21:52.585Z,0.00
2018-10-16T04:22:52.628Z,0.00
2018-10-16T04:23:52.667Z,0.00
2018-10-16T04:24:52.626Z,0.00
2018-10-16T04:25:52.627Z,0.00
2018-10-16T04:26:52.633Z,0.00
2018-10-16T04:27:52.655Z,0.00
2018-10-16T04:28:52.678Z,0.00
2018-10-16T04:29:52.658Z,0.00
2018-10-16T04:30:52.695Z,0.00
2018-10-16T04:31:52.670Z,0.00
2018-10-16T04:32:52.685Z,0.00
2018-10-16T04:33:52.682Z,0.00
2018-10-16T04:34:52.747Z,0.00
2018-10-16T04:35:52.742Z,0.00
2018-10-16T04:36:52.722Z,0.00
2018-10-16T04:37:52.717Z,0.00
2018-10-16T04:38:52.792Z,0.00
2018-10-16T04:39:52.732Z,0.00
2018-10-16T04:40:52.745Z,0.00
2018-10-16T04:41:52.764Z,0.00
2018-10-16T04:42:52.770Z,0.00
2018-10-16T04:43:52.798Z,0.00
2018-10-16T04:44:52.779Z,0.00
2018-10-16T04:45:52.811Z,0.00
2018-10-16T04:46:52.775Z,0.00
2018-10-16T04:47:52.792Z,0.00
2018-10-16T04:48:52.847Z,0.00
2018-10-16T04:49:53.172Z,0.00
2018-10-16T04:50:52.804Z,0.00
2018-10-16T04:51:52.872Z,0.00
2018-10-16T04:52:52.818Z,0.00
2018-10-16T04:53:52.831Z,0.00
2018-10-16T04:54:52.836Z,0.00
2018-10-16T04:55:52.894Z,0.00
2018-10-16T04:56:52.868Z,0.00
2018-10-16T04:57:53.005Z,0.00
2018-10-16T04:58:52.901Z,0.00
2018-10-16T04:59:52.906Z,0.00
2018-10-16T05:00:52.883Z,0.00
2018-10-16T05:01:52.903Z,0.00
2018-10-16T05:02:52.930Z,4.00
2018-10-16T05:03:52.954Z,4.00
2018-10-16T05:04:52.914Z,4.00
2018-10-16T05:05:52.921Z,4.00
2018-10-16T05:06:52.980Z,4.00
2018-10-16T05:07:52.957Z,8.00
2018-10-16T05:08:52.964Z,4.00
2018-10-16T05:09:53.015Z,8.00
2018-10-16T05:10:52.966Z,8.00
2018-10-16T05:11:52.970Z,8.00
2018-10-16T05:12:53.017Z,8.00
2018-10-16T05:13:53.030Z,12.00
2018-10-16T05:14:53.005Z,16.00
2018-10-16T05:15:53.055Z,20.00
2018-10-16T05:16:53.110Z,24.00
2018-10-16T05:17:53.037Z,24.00
2018-10-16T05:18:53.097Z,32.00
2018-10-16T05:19:53.043Z,36.00
2018-10-16T05:20:53.041Z,40.00
2018-10-16T05:21:53.071Z,48.00
2018-10-16T05:22:53.057Z,56.00
2018-10-16T05:23:53.113Z,64.00
2018-10-16T05:24:53.077Z,72.00
2018-10-16T05:25:53.131Z,80.00
2018-10-16T05:26:53.091Z,92.00
2018-10-16T05:27:53.104Z,100.00
2018-10-16T05:28:53.104Z,112.00
2018-10-16T05:29:53.109Z,128.00
2018-10-16T05:30:53.234Z,144.00
2018-10-16T05:31:53.235Z,160.00
2018-10-16T05:32:53.127Z,180.00
2018-10-16T05:33:53.131Z,192.00
2018-10-16T05:34:53.187Z,212.00
2018-10-16T05:35:53.149Z,232.00
2018-10-16T05:36:53.199Z,252.00
2018-10-16T05:37:53.246Z,272.00
2018-10-16T05:38:53.177Z,292.00
2018-10-16T05:39:53.207Z,312.00
2018-10-16T05:40:53.187Z,332.00
2018-10-16T05:41:53.252Z,360.00
2018-10-16T05:42:53.218Z,384.00
2018-10-16T05:43:53.269Z,408.00
2018-10-16T05:44:53.215Z,436.00
2018-10-16T05:45:53.236Z,468.00
2018-10-16T05:46:53.240Z,500.00
2018-10-16T05:47:53.277Z,532.00
2018-10-16T05:48:53.267Z,560.00
2018-10-16T05:49:53.275Z,592.00
2018-10-16T05:50:53.263Z,596.00
2018-10-16T05:51:53.300Z,636.00
2018-10-16T05:52:53.440Z,688.00
2018-10-16T05:53:53.316Z,720.00
2018-10-16T05:54:53.320Z,756.00
2018-10-16T05:55:53.311Z,788.00
2018-10-16T05:56:53.319Z,812.00
2018-10-16T05:57:53.394Z,832.00
2018-10-16T05:58:53.319Z,864.00
2018-10-16T05:59:53.365Z,900.00
2018-10-16T06:00:53.379Z,932.00
2018-10-16T06:01:53.347Z,968.00
2018-10-16T06:02:53.357Z,1000.00
2018-10-16T06:03:53.401Z,1036.00
2018-10-16T06:04:53.370Z,1068.00
2018-10-16T06:05:53.381Z,1100.00
2018-10-16T06:06:53.405Z,1136.00
2018-10-16T06:07:53.415Z,1168.00
2018-10-16T06:08:53.431Z,1204.00
2018-10-16T06:09:53.439Z,1240.00
2018-10-16T06:10:53.570Z,1276.00
2018-10-16T06:11:53.443Z,1312.00
2018-10-16T06:12:53.450Z,1340.00
2018-10-16T06:13:53.454Z,1372.00
2018-10-16T06:14:53.473Z,1404.00
2018-10-16T06:15:53.513Z,1436.00
2018-10-16T06:16:53.471Z,1464.00
2018-10-16T06:17:53.472Z,1492.00
2018-10-16T06:18:53.483Z,1524.00
2018-10-16T06:19:53.514Z,1552.00
2018-10-16T06:20:53.503Z,1580.00
2018-10-16T06:21:53.525Z,1612.00
2018-10-16T06:22:53.526Z,1636.00
2018-10-16T06:23:53.519Z,1668.00
2018-10-16T06:24:53.549Z,1692.00
2018-10-16T06:25:53.558Z,1720.00
2018-10-16T06:26:53.539Z,1744.00
2018-10-16T06:27:53.691Z,1772.00
2018-10-16T06:28:53.565Z,1796.00
2018-10-16T06:29:53.569Z,1824.00
2018-10-16T06:30:53.592Z,1848.00
2018-10-16T06:31:53.585Z,1872.00
2018-10-16T06:32:53.583Z,1900.00
2018-10-16T06:33:53.601Z,1924.00
2018-10-16T06:34:53.828Z,1948.00
2018-10-16T06:35:53.623Z,1968.00
2018-10-16T06:36:53.668Z,1996.00
2018-10-16T06:37:53.659Z,2020.00
2018-10-16T06:38:53.634Z,2040.00
2018-10-16T06:39:53.665Z,2060.00
2018-10-16T06:40:53.841Z,2080.00
2018-10-16T06:41:53.686Z,2104.00
2018-10-16T06:42:53.661Z,2120.00
2018-10-16T06:43:53.780Z,2144.00
2018-10-16T06:44:53.682Z,2160.00
2018-10-16T06:45:53.692Z,2176.00
2018-10-16T06:46:53.743Z,2196.00
2018-10-16T06:47:53.803Z,2212.00
2018-10-16T06:48:53.888Z,2232.00
2018-10-16T06:49:53.719Z,2248.00
2018-10-16T06:50:53.791Z,2268.00
2018-10-16T06:51:53.813Z,2284.00
2018-10-16T06:52:53.781Z,2300.00
2018-10-16T06:53:53.774Z,2316.00
2018-10-16T06:54:53.783Z,2336.00
2018-10-16T06:55:53.775Z,2348.00
2018-10-16T06:56:53.858Z,2368.00
2018-10-16T06:57:53.810Z,2380.00
2018-10-16T06:58:53.814Z,2396.00
2018-10-16T06:59:53.808Z,2416.00
2018-10-16T07:00:53.830Z,2432.00
2018-10-16T07:01:53.832Z,2448.00
2018-10-16T07:02:53.823Z,2464.00
2018-10-16T07:03:53.851Z,2480.00
2018-10-16T07:04:53.907Z,2492.00
2018-10-16T07:05:53.855Z,2508.00
2018-10-16T07:06:53.943Z,2516.00
2018-10-16T07:07:53.875Z,2532.00
2018-10-16T07:08:53.912Z,2544.00
2018-10-16T07:09:53.887Z,2556.00
2018-10-16T07:10:53.929Z,2568.00
2018-10-16T07:11:53.909Z,2580.00
2018-10-16T07:12:53.922Z,2592.00
2018-10-16T07:13:53.946Z,2604.00
2018-10-16T07:14:54.030Z,2616.00
2018-10-16T07:15:53.932Z,2624.00
2018-10-16T07:16:53.937Z,2636.00
2018-10-16T07:17:53.942Z,2644.00
2018-10-16T07:18:53.948Z,2656.00
2018-10-16T07:19:53.993Z,2664.00
2018-10-16T07:20:57.743Z,2672.00
2018-10-16T07:22:00.215Z,2684.00
2018-10-16T07:22:53.998Z,2692.00
2018-10-16T07:23:54.080Z,2708.00
2018-10-16T07:24:54.026Z,2720.00
2018-10-16T07:25:54.021Z,2736.00
2018-10-16T07:26:54.106Z,2748.00
2018-10-16T07:27:54.024Z,2756.00
2018-10-16T07:28:54.024Z,2768.00
2018-10-16T07:29:54.095Z,2776.00
2018-10-16T07:30:54.048Z,2784.00
2018-10-16T07:31:54.087Z,2796.00
2018-10-16T07:32:54.128Z,2804.00
2018-10-16T07:33:54.137Z,2812.00
2018-10-16T07:34:54.083Z,2824.00
2018-10-16T07:35:54.104Z,2836.00
2018-10-16T07:36:54.113Z,2840.00
2018-10-16T07:37:54.165Z,2848.00
2018-10-16T07:38:54.207Z,2852.00
2018-10-16T07:39:54.126Z,2856.00
2018-10-16T07:40:54.146Z,2864.00
2018-10-16T07:41:54.167Z,2872.00
2018-10-16T07:42:54.174Z,2876.00
2018-10-16T07:43:54.169Z,2880.00
2018-10-16T07:44:54.359Z,2884.00
2018-10-16T07:45:54.271Z,2892.00
2018-10-16T07:46:54.188Z,2900.00
2018-10-16T07:47:54.244Z,2904.00
2018-10-16T07:48:54.891Z,2912.00
2018-10-16T07:49:54.244Z,2920.00
2018-10-16T07:50:54.815Z,2924.00
2018-10-16T07:51:54.382Z,2924.00
2018-10-16T07:52:54.483Z,2932.00
2018-10-16T07:53:56.897Z,2940.00
2018-10-16T07:54:54.418Z,2944.00
2018-10-16T07:55:54.296Z,2952.00
2018-10-16T07:56:54.842Z,2960.00
2018-10-16T07:57:54.310Z,2968.00
2018-10-16T07:58:54.327Z,2976.00
2018-10-16T07:59:54.321Z,2984.00
2018-10-16T08:00:54.309Z,2992.00
2018-10-16T08:01:54.316Z,2992.00
2018-10-16T08:02:54.409Z,3000.00
2018-10-16T08:03:54.364Z,3000.00
2018-10-16T08:04:54.358Z,3004.00
2018-10-16T08:05:54.340Z,3004.00
2018-10-16T08:06:54.366Z,3008.00
2018-10-16T08:07:54.374Z,3016.00
2018-10-16T08:08:54.388Z,3024.00
2018-10-16T08:09:54.407Z,3028.00
2018-10-16T08:10:55.351Z,3032.00
2018-10-16T08:11:54.400Z,3036.00
2018-10-16T08:12:54.492Z,3040.00
2018-10-16T08:13:54.411Z,3048.00
2018-10-16T08:15:10.283Z,3056.00
2018-10-16T08:15:54.428Z,3064.00
2018-10-16T08:16:54.475Z,3060.00
2018-10-16T08:17:54.454Z,3072.00
2018-10-16T08:18:54.472Z,3072.00
2018-10-16T08:19:55.426Z,3080.00
2018-10-16T08:20:54.587Z,3080.00
2018-10-16T08:21:54.495Z,3084.00
2018-10-16T08:22:54.513Z,3084.00
2018-10-16T08:23:54.515Z,3092.00
2018-10-16T08:24:54.524Z,3092.00
2018-10-16T08:25:54.613Z,3096.00
2018-10-16T08:26:54.585Z,3100.00
2018-10-16T08:27:54.557Z,3108.00
2018-10-16T08:28:55.264Z,3108.00
2018-10-16T08:29:54.860Z,3108.00
2018-10-16T08:30:54.656Z,3108.00
2018-10-16T08:31:54.594Z,3104.00
2018-10-16T08:32:54.578Z,3104.00
2018-10-16T08:33:54.715Z,3108.00
2018-10-16T08:34:54.703Z,3116.00
2018-10-16T08:35:54.699Z,3116.00
2018-10-16T08:36:54.881Z,3120.00
2018-10-16T08:37:54.626Z,3124.00
2018-10-16T08:38:55.295Z,3124.00
2018-10-16T08:39:54.693Z,3128.00
2018-10-16T08:40:54.672Z,3132.00
2018-10-16T08:41:54.911Z,3132.00
2018-10-16T08:42:54.648Z,3140.00
2018-10-16T08:43:54.697Z,3140.00
2018-10-16T08:44:56.714Z,3140.00
2018-10-16T08:45:54.817Z,3144.00
2018-10-16T08:46:54.696Z,3144.00
2018-10-16T08:47:54.717Z,3144.00
2018-10-16T08:48:55.449Z,3144.00
2018-10-16T08:49:54.733Z,3144.00
2018-10-16T08:50:54.745Z,3144.00
2018-10-16T08:51:54.908Z,3144.00
2018-10-16T08:52:55.343Z,3140.00
2018-10-16T08:53:54.772Z,3140.00
2018-10-16T08:54:55.070Z,3140.00
2018-10-16T08:55:54.935Z,3144.00
2018-10-16T08:56:54.957Z,3144.00
2018-10-16T08:57:57.868Z,3144.00
2018-10-16T08:58:57.219Z,3148.00
2018-10-16T08:59:54.868Z,3152.00
2018-10-16T09:00:54.936Z,3152.00
2018-10-16T09:01:55.908Z,3148.00
2018-10-16T09:02:55.375Z,3148.00
2018-10-16T09:03:57.210Z,3152.00
2018-10-16T09:04:55.768Z,3156.00
2018-10-16T09:05:54.994Z,3156.00
2018-10-16T09:06:57.712Z,3160.00
2018-10-16T09:07:55.827Z,3160.00
2018-10-16T09:08:57.230Z,3164.00
2018-10-16T09:09:57.214Z,3164.00
2018-10-16T09:10:57.212Z,3160.00
2018-10-16T09:11:55.513Z,3160.00
2018-10-16T09:12:56.738Z,3164.00
2018-10-16T09:13:55.820Z,3156.00
2018-10-16T09:14:57.829Z,3156.00
2018-10-16T09:15:56.171Z,3156.00
2018-10-16T09:16:55.483Z,3156.00
2018-10-16T09:17:55.756Z,3160.00
2018-10-16T09:18:55.408Z,3160.00
2018-10-16T09:19:55.491Z,3164.00
2018-10-16T09:20:55.394Z,3168.00
2018-10-16T09:21:55.099Z,3172.00
2018-10-16T09:22:55.032Z,3168.00
2018-10-16T09:23:55.924Z,3168.00
2018-10-16T09:24:55.071Z,3168.00
2018-10-16T09:25:55.212Z,3168.00
2018-10-16T09:26:55.227Z,3172.00
2018-10-16T09:27:55.227Z,3164.00
2018-10-16T09:28:55.119Z,3164.00
2018-10-16T09:29:55.073Z,3160.00
2018-10-16T09:30:55.185Z,3160.00
2018-10-16T09:31:55.085Z,3164.00
2018-10-16T09:32:55.152Z,3160.00
2018-10-16T09:33:55.451Z,3164.00
2018-10-16T09:34:55.815Z,3168.00
2018-10-16T09:35:56.173Z,3172.00
2018-10-16T09:36:55.220Z,3172.00
2018-10-16T09:37:55.170Z,3176.00
2018-10-16T09:38:55.353Z,3180.00
2018-10-16T09:39:55.273Z,3180.00
2018-10-16T09:40:55.164Z,3180.00
2018-10-16T09:41:55.208Z,3180.00
2018-10-16T09:42:55.241Z,3180.00
2018-10-16T09:43:55.366Z,3180.00
2018-10-16T09:44:55.208Z,3176.00
2018-10-16T09:45:55.273Z,3176.00
2018-10-16T09:46:55.869Z,3168.00
2018-10-16T09:47:55.252Z,3164.00
2018-10-16T09:48:55.253Z,3160.00
2018-10-16T09:49:55.406Z,3152.00
2018-10-16T09:50:55.311Z,3144.00
2018-10-16T09:51:56.217Z,3144.00
2018-10-16T09:52:55.423Z,3152.00
2018-10-16T09:53:55.311Z,3156.00
2018-10-16T09:54:55.378Z,3156.00
2018-10-16T09:55:55.388Z,3156.00
2018-10-16T09:56:55.343Z,3160.00
2018-10-16T09:57:55.425Z,3160.00
2018-10-16T09:58:55.354Z,3160.00
2018-10-16T09:59:55.473Z,3156.00
2018-10-16T10:00:56.267Z,3160.00
2018-10-16T10:01:55.400Z,3160.00
2018-10-16T10:02:55.398Z,3160.00
2018-10-16T10:03:55.391Z,3164.00
2018-10-16T10:04:56.318Z,3160.00
2018-10-16T10:05:55.553Z,3160.00
2018-10-16T10:06:55.770Z,3160.00
2018-10-16T10:07:55.772Z,3160.00
2018-10-16T10:08:55.592Z,3160.00
2018-10-16T10:09:55.939Z,3164.00
2018-10-16T10:10:56.894Z,3164.00
2018-10-16T10:11:56.320Z,3168.00
2018-10-16T10:12:56.028Z,3172.00
2018-10-16T10:13:55.696Z,3176.00
2018-10-16T10:14:56.320Z,3176.00
2018-10-16T10:15:55.819Z,3184.00
2018-10-16T10:16:55.745Z,3188.00
2018-10-16T10:17:55.699Z,3192.00
2018-10-16T10:18:57.219Z,3196.00
2018-10-16T10:19:58.734Z,3200.00
2018-10-16T10:20:56.644Z,3212.00
2018-10-16T10:21:55.978Z,3208.00
2018-10-16T10:22:55.585Z,3184.00
2018-10-16T10:23:55.593Z,3144.00
2018-10-16T10:24:55.585Z,3052.00
2018-10-16T10:25:57.771Z,3084.00
2018-10-16T10:26:55.771Z,3028.00
2018-10-16T10:27:55.661Z,2944.00
2018-10-16T10:28:56.747Z,2932.00
2018-10-16T10:29:55.654Z,2968.00
2018-10-16T10:30:55.736Z,3004.00
2018-10-16T10:31:56.743Z,2976.00
2018-10-16T10:32:55.969Z,2944.00
2018-10-16T10:33:56.215Z,2964.00
2018-10-16T10:34:56.775Z,3012.00
2018-10-16T10:35:55.688Z,3012.00
2018-10-16T10:36:55.883Z,3036.00
2018-10-16T10:37:55.985Z,3100.00
2018-10-16T10:38:58.733Z,3144.00
2018-10-16T10:39:55.886Z,3216.00
2018-10-16T10:40:58.221Z,3224.00
2018-10-16T10:41:55.789Z,3220.00
2018-10-16T10:42:55.768Z,3236.00
2018-10-16T10:43:55.753Z,3268.00
2018-10-16T10:44:55.805Z,3268.00
2018-10-16T10:45:55.793Z,3268.00
2018-10-16T10:46:55.780Z,3268.00
2018-10-16T10:47:55.792Z,3264.00
2018-10-16T10:48:55.825Z,3264.00
2018-10-16T10:49:55.940Z,3264.00
2018-10-16T10:50:56.059Z,3268.00
2018-10-16T10:51:55.829Z,3268.00
2018-10-16T10:52:55.840Z,3268.00
2018-10-16T10:53:55.844Z,3272.00
2018-10-16T10:54:55.865Z,3272.00
2018-10-16T10:55:55.898Z,3276.00
2018-10-16T10:56:55.982Z,3280.00
2018-10-16T10:57:55.886Z,3280.00
2018-10-16T10:58:55.908Z,3280.00
2018-10-16T10:59:55.926Z,3284.00
2018-10-16T11:00:55.935Z,3288.00
2018-10-16T11:01:55.945Z,3296.00
2018-10-16T11:02:55.996Z,3304.00
2018-10-16T11:03:55.972Z,3312.00
2018-10-16T11:04:55.965Z,3316.00
2018-10-16T11:05:56.002Z,3324.00
2018-10-16T11:06:56.000Z,3332.00
2018-10-16T11:07:55.987Z,3348.00
2018-10-16T11:08:56.023Z,3368.00
2018-10-16T11:09:56.013Z,3396.00
2018-10-16T11:10:56.117Z,3428.00
2018-10-16T11:11:56.034Z,3468.00
2018-10-16T11:12:56.096Z,3504.00
2018-10-16T11:13:56.049Z,3524.00
2018-10-16T11:14:56.100Z,3536.00
2018-10-16T11:15:56.060Z,3552.00
2018-10-16T11:16:56.118Z,3572.00
2018-10-16T11:17:56.106Z,3588.00
2018-10-16T11:18:56.093Z,3608.00
2018-10-16T11:19:56.115Z,3660.00
2018-10-16T11:20:56.198Z,3736.00
2018-10-16T11:21:56.131Z,3796.00
2018-10-16T11:22:56.133Z,3864.00
2018-10-16T11:23:56.148Z,3916.00
2018-10-16T11:24:56.201Z,3964.00
2018-10-16T11:25:56.202Z,3956.00
2018-10-16T11:26:56.274Z,3944.00
2018-10-16T11:27:56.195Z,3992.00
2018-10-16T11:28:56.219Z,4064.00
2018-10-16T11:29:56.211Z,4168.00
2018-10-16T11:30:56.243Z,4288.00
2018-10-16T11:31:56.223Z,4460.00
2018-10-16T11:32:56.266Z,4664.00
2018-10-16T11:33:56.239Z,4924.00
2018-10-16T11:34:56.253Z,5160.00
2018-10-16T11:35:56.310Z,5360.00
2018-10-16T11:36:56.317Z,5500.00
2018-10-16T11:37:56.274Z,5688.00
2018-10-16T11:38:56.319Z,5892.00
2018-10-16T11:39:56.329Z,6088.00
2018-10-16T11:40:56.328Z,6304.00
2018-10-16T11:41:56.345Z,6548.00
2018-10-16T11:42:56.347Z,6712.00
2018-10-16T11:43:56.351Z,6792.00
2018-10-16T11:44:56.393Z,6828.00
2018-10-16T11:45:56.361Z,6816.00
2018-10-16T11:46:56.416Z,6820.00
2018-10-16T11:47:56.426Z,6840.00
2018-10-16T11:48:56.416Z,6864.00
2018-10-16T11:49:56.431Z,6840.00
2018-10-16T11:50:56.446Z,6816.00
2018-10-16T11:51:56.462Z,6832.00
2018-10-16T11:52:56.463Z,6868.00
2018-10-16T11:53:56.532Z,6896.00
2018-10-16T11:54:56.456Z,6912.00
2018-10-16T11:55:56.530Z,6904.00
2018-10-16T11:56:56.488Z,6892.00
2018-10-16T11:57:56.607Z,6852.00
2018-10-16T11:58:56.509Z,6772.00
2018-10-16T11:59:56.512Z,6704.00
2018-10-16T12:00:56.533Z,6656.00
2018-10-16T12:01:56.659Z,6608.00
2018-10-16T12:02:56.580Z,6568.00
2018-10-16T12:03:56.570Z,6532.00
2018-10-16T12:04:56.880Z,6500.00
2018-10-16T12:05:56.603Z,6436.00
2018-10-16T12:06:56.695Z,6376.00
2018-10-16T12:07:56.638Z,6312.00
2018-10-16T12:08:56.671Z,6240.00
2018-10-16T12:09:56.639Z,6100.00
2018-10-16T12:10:56.637Z,5924.00
2018-10-16T12:11:56.644Z,5756.00
2018-10-16T12:12:56.657Z,5620.00
2018-10-16T12:13:56.673Z,5508.00
2018-10-16T12:14:56.714Z,5424.00
2018-10-16T12:15:56.733Z,5404.00
2018-10-16T12:16:56.703Z,5408.00
2018-10-16T12:17:56.728Z,5420.00
2018-10-16T12:18:56.798Z,5452.00
2018-10-16T12:19:56.780Z,5468.00
2018-10-16T12:20:56.834Z,5480.00
2018-10-16T12:21:56.804Z,5484.00
2018-10-16T12:22:56.772Z,5460.00
2018-10-16T12:23:56.820Z,5416.00
2018-10-16T12:24:56.797Z,5384.00
2018-10-16T12:25:56.840Z,5340.00
2018-10-16T12:26:56.867Z,5296.00
2018-10-16T12:27:56.842Z,5268.00
2018-10-16T12:28:56.858Z,5256.00
2018-10-16T12:29:56.847Z,5264.00
2018-10-16T12:30:56.945Z,5252.00
2018-10-16T12:31:56.873Z,5260.00
2018-10-16T12:32:56.879Z,5256.00
2018-10-16T12:33:56.895Z,5268.00
2018-10-16T12:34:56.899Z,5288.00
2018-10-16T12:35:56.932Z,5304.00
2018-10-16T12:36:56.921Z,5316.00